Elizabeth, WV (26143)

8:24 AM EDT on September 04, 2015 (GMT -0400)
Liverpool | | Change Station
CLOSE
Current Station
Personal Weather Station
Location: LeRoy, WV
Elevation: 682 ft
Nearby Weather Stations

Elev 682 ft 38.89 °N, 81.53 °W | Updated 6 seconds ago

Partly Cloudy
Partly Cloudy
64.8 °F
Feels Like 64.8 °F
N
0.0
Wind Variable Wind from SSW
Gusts 0.0 mph

Today
High -- | Low -- °F
--% Chance of Precip.
Yesterday
High -- | Low -- °F
Precip. -- in
6:56 AM 7:51 PM
Waning Gibbous, 60% visible
Pressure 30.08 in
Visibility 5.0 miles
Clouds Few 6000 ft
Dew Point 65 °F
Humidity 99%
Rainfall 0.00 in
Snow Depth Not available.
UV 1.0 out of 12
Pollen 9.30 out of 12
Air Quality Not available.
Flu Activity Not available.
METAR KPKB 041153Z 16004KT 5SM BCFG BR FEW060 19/18 A3010 RMK AO2 SLP186 T01890183 10194 20178 51015
Pressure 30.08 in
Visibility 5.0 miles
Clouds Few 6000 ft
Dew Point 65 °F
Humidity 99%
Rainfall 0.00 in
Snow Depth Not available.
UV 1.0 out of 12
Pollen 9.30 out of 12
Air Quality Not available.
Flu Activity Not available.
METAR KPKB 041153Z 16004KT 5SM BCFG BR FEW060 19/18 A3010 RMK AO2 SLP186 T01890183 10194 20178 51015

10-Day Weather Forecast

×

Almanac

Astronomy

Sep. 04, 2015 Rise Set
Actual Time
Civil Twilight
Nautical Twilight
Astronomical Twilight
Moon
Length of Visible Light
Length of Day
Tomorrow will be .
, % of the Moon is Illuminated

Today's Extremes

State Highs State Lows

Community

WunderPhotos

Upload Photos

1,852,160 photos uploaded!

WunderBlogs® & News

Nearby

Air Quality

  Air Quality AQ Index Pollutant
Not available.

Snow Depth

Station Depth Elevation

Earthquake Activity

City Distance Mag. Time & Date
Minimum magnitude displayed is 2.5.

Coastal Water Temperatures

Place Temperature

Stations

Nearby Weather Stations

Station Location Temp. Windchill Dew Point Humidity Wind Precip. Elev Updated Type